Time;durP1;ratioP1;P1;durP2;ratioP2;P2;SDS_P1;SDS_P2;PMS_P1;PMS_P2;Temp;Humidity;BMP_temperature;BMP_pressure;BME280_temperature;BME280_humidity;BME280_pressure;Samples;Min_cycle;Max_cycle;Signal;HPM_P1;HPM_P2
2022/03/06 00:00:41;;;;;;;2.80;1.45;;;2.30;99.90;;;;;;5083102;28;20020;-66
2022/03/06 00:03:08;;;;;;;0.70;0.47;;;2.30;99.90;;;;;;5100748;28;20032;-67
2022/03/06 00:05:34;;;;;;;0.00;0.00;;;2.20;99.70;;;;;;5101046;28;20062;-67
2022/03/06 00:08:02;;;;;;;0.00;0.00;;;2.30;99.90;;;;;;5101136;28;20020;-68
2022/03/06 00:10:28;;;;;;;0.00;0.00;;;2.30;99.90;;;;;;5100736;28;20101;-67
2022/03/06 00:12:54;;;;;;;0.08;0.08;;;2.30;99.90;;;;;;5082729;28;20028;-68
2022/03/06 00:15:25;;;;;;;0.47;0.47;;;2.20;99.90;;;;;;5084939;28;20215;-69
2022/03/06 00:17:52;;;;;;;0.00;0.00;;;2.20;99.90;;;;;;5104956;28;20019;-70
2022/03/06 00:20:18;;;;;;;0.43;0.35;;;2.20;99.90;;;;;;5104557;28;20032;-70
2022/03/06 00:22:43;;;;;;;0.00;0.00;;;2.20;99.90;;;;;;5085815;28;20020;-69
2022/03/06 00:25:09;;;;;;;0.00;0.00;;;2.20;99.90;;;;;;5086399;28;20306;-69
2022/03/06 00:30:19;;;;;;;0.00;0.00;;;2.10;99.90;;;;;;5103442;28;20030;-69
2022/03/06 00:32:45;;;;;;;0.00;0.00;;;2.10;99.90;;;;;;5104067;28;20283;-69
2022/03/06 00:35:11;;;;;;;0.00;0.00;;;2.10;99.90;;;;;;5104174;28;20012;-73
2022/03/06 00:37:37;;;;;;;1.77;1.67;;;2.10;99.90;;;;;;5104039;28;20045;-70
2022/03/06 00:40:05;;;;;;;0.57;0.57;;;2.10;99.90;;;;;;5104272;28;20019;-70
2022/03/06 00:42:31;;;;;;;0.00;0.00;;;2.10;99.90;;;;;;5103880;28;20092;-70
2022/03/06 00:44:57;;;;;;;0.10;0.10;;;2.10;99.90;;;;;;5103466;28;20019;-70
2022/03/06 00:47:22;;;;;;;0.47;0.47;;;2.10;99.90;;;;;;5102296;28;20031;-70
2022/03/06 00:49:48;;;;;;;0.00;0.00;;;2.10;99.90;;;;;;5103100;28;20032;-69
2022/03/06 00:52:14;;;;;;;0.00;0.00;;;2.00;99.90;;;;;;5102691;28;20036;-70
2022/03/06 00:54:40;;;;;;;0.00;0.00;;;2.00;99.90;;;;;;5103713;28;20016;-70
2022/03/06 00:57:05;;;;;;;0.00;0.00;;;2.00;99.90;;;;;;5085585;28;20079;-69
2022/03/06 00:59:34;;;;;;;0.10;0.10;;;2.00;99.90;;;;;;5102828;28;20016;-70
2022/03/06 01:02:00;;;;;;;;;;;2.00;99.90;;;;;;5104225;28;20028;-70
2022/03/06 01:04:26;;;;;;;0.00;0.00;;;2.00;99.90;;;;;;5084727;28;19904;-69
2022/03/06 01:06:52;;;;;;;0.00;0.00;;;2.00;99.90;;;;;;5102887;28;20058;-69
2022/03/06 01:09:18;;;;;;;0.10;0.10;;;2.00;99.90;;;;;;5102998;28;20016;-70
2022/03/06 01:11:44;;;;;;;0.00;0.00;;;2.00;99.90;;;;;;5084406;28;20248;-73
2022/03/06 01:14:10;;;;;;;0.05;0.05;;;1.90;99.90;;;;;;5104587;28;20042;-70
2022/03/06 01:16:35;;;;;;;0.15;0.15;;;1.90;99.90;;;;;;5108692;28;20046;-69
2022/03/06 01:19:01;;;;;;;0.00;0.00;;;1.90;99.90;;;;;;5084838;28;20020;-68
2022/03/06 01:21:27;;;;;;;0.10;0.10;;;1.90;99.90;;;;;;5087934;28;20027;-70
2022/03/06 01:23:52;;;;;;;0.52;0.52;;;1.90;99.90;;;;;;5106287;28;20028;-69
2022/03/06 01:26:19;;;;;;;2.85;2.65;;;1.90;99.90;;;;;;5087296;28;20040;-68
2022/03/06 01:28:45;;;;;;;0.00;0.00;;;1.80;99.90;;;;;;5102707;28;20024;-68
2022/03/06 01:31:11;;;;;;;0.00;0.00;;;1.90;99.90;;;;;;5085327;28;20130;-69
2022/03/06 01:33:37;;;;;;;0.90;0.70;;;1.90;99.90;;;;;;5102606;28;20030;-68
2022/03/06 01:36:04;;;;;;;0.00;0.00;;;1.90;99.90;;;;;;5085210;28;20095;-70
2022/03/06 01:38:29;;;;;;;0.00;0.00;;;1.80;99.90;;;;;;5102255;28;20047;-71
2022/03/06 01:40:55;;;;;;;0.00;0.00;;;1.80;99.90;;;;;;5084816;28;20312;-66
2022/03/06 01:43:21;;;;;;;0.57;0.57;;;1.80;99.90;;;;;;5103156;28;20355;-69
2022/03/06 01:45:47;;;;;;;0.00;0.00;;;1.80;99.90;;;;;;5085238;28;20319;-66
2022/03/06 01:48:12;;;;;;;0.00;0.00;;;1.80;99.90;;;;;;5103671;28;20016;-68
2022/03/06 01:50:39;;;;;;;0.00;0.00;;;1.80;99.90;;;;;;5102635;28;20105;-68
2022/03/06 01:53:08;;;;;;;0.00;0.00;;;1.80;99.90;;;;;;5103823;28;20016;-69
2022/03/06 01:55:34;;;;;;;0.00;0.00;;;1.80;99.90;;;;;;5103395;28;20020;-68
2022/03/06 01:58:04;;;;;;;1.42;1.35;;;1.80;99.90;;;;;;5103464;28;20087;-68
2022/03/06 02:00:34;;;;;;;0.00;0.00;;;1.70;99.90;;;;;;5103205;28;20027;-69
2022/03/06 02:03:19;;;;;;;0.05;0.05;;;1.80;99.90;;;;;;5103559;28;20012;-68
2022/03/06 02:05:45;;;;;;;0.00;0.00;;;1.80;99.90;;;;;;5103374;28;20020;-68
2022/03/06 02:08:11;;;;;;;0.00;0.00;;;1.80;99.90;;;;;;5103653;28;20026;-68
2022/03/06 02:10:38;;;;;;;0.00;0.00;;;1.80;99.90;;;;;;5102924;28;20103;-68
2022/03/06 02:15:51;;;;;;;0.68;0.50;;;1.80;99.90;;;;;;5103533;28;20073;-69
2022/03/06 02:18:19;;;;;;;0.00;0.00;;;1.80;99.90;;;;;;5103211;28;20018;-75
2022/03/06 02:20:47;;;;;;;0.23;0.23;;;1.80;99.90;;;;;;5084930;28;20058;-68
2022/03/06 02:23:13;;;;;;;0.00;0.00;;;1.80;99.90;;;;;;5103153;28;20287;-68
2022/03/06 02:25:39;;;;;;;0.00;0.00;;;1.80;99.90;;;;;;5102771;28;20234;-67
2022/03/06 02:28:09;;;;;;;0.00;0.00;;;1.80;99.90;;;;;;5068432;28;20334;-68
2022/03/06 02:30:37;;;;;;;0.00;0.00;;;1.80;99.90;;;;;;5084470;28;20035;-68
2022/03/06 02:33:06;;;;;;;0.57;0.52;;;1.80;99.90;;;;;;5102682;28;20020;-72
2022/03/06 02:35:31;;;;;;;;;;;1.80;99.90;;;;;;5102753;28;20048;-68
2022/03/06 02:37:58;;;;;;;0.00;0.00;;;1.80;99.90;;;;;;5101937;28;19949;-69
2022/03/06 02:40:24;;;;;;;0.00;0.00;;;1.80;99.90;;;;;;5102523;28;20318;-69
2022/03/06 02:42:52;;;;;;;0.00;0.00;;;1.70;99.90;;;;;;5102504;28;20064;-69
2022/03/06 02:45:27;;;;;;;0.00;0.00;;;1.80;99.90;;;;;;5102821;28;20020;-67
2022/03/06 02:47:55;;;;;;;0.00;0.00;;;1.80;99.90;;;;;;5102586;28;20028;-68
2022/03/06 02:50:23;;;;;;;0.00;0.00;;;1.70;99.90;;;;;;5102621;28;20059;-76
2022/03/06 02:52:49;;;;;;;0.00;0.00;;;1.70;99.90;;;;;;5084895;28;20293;-71
2022/03/06 02:55:16;;;;;;;0.00;0.00;;;1.70;99.90;;;;;;5102808;28;20024;-68
2022/03/06 02:57:42;;;;;;;8.93;3.00;;;1.70;99.90;;;;;;5084277;28;20420;-68
2022/03/06 03:00:11;;;;;;;2.10;1.30;;;1.70;99.90;;;;;;5084673;28;20126;-67
2022/03/06 03:02:37;;;;;;;;;;;1.70;99.90;;;;;;5102634;28;20027;-67
2022/03/06 03:05:05;;;;;;;0.00;0.00;;;1.70;99.90;;;;;;5102747;28;19904;-68
2022/03/06 03:07:30;;;;;;;0.97;0.97;;;1.70;99.90;;;;;;5102198;28;20074;-67
2022/03/06 03:09:56;;;;;;;0.35;0.35;;;1.70;99.90;;;;;;5102229;28;20047;-67
2022/03/06 03:12:22;;;;;;;0.00;0.00;;;1.70;99.90;;;;;;5098047;28;20035;-76
2022/03/06 03:14:48;;;;;;;0.10;0.10;;;1.70;99.90;;;;;;5098284;28;20356;-68
2022/03/06 03:17:14;;;;;;;0.00;0.00;;;1.60;99.90;;;;;;5098104;28;20219;-68
2022/03/06 03:19:39;;;;;;;4.13;2.13;;;1.60;99.90;;;;;;5080325;28;20024;-68
2022/03/06 03:22:05;;;;;;;0.00;0.00;;;1.70;99.90;;;;;;5081071;28;20207;-68
2022/03/06 03:24:31;;;;;;;0.00;0.00;;;1.60;99.90;;;;;;5082612;28;20095;-67
2022/03/06 03:26:57;;;;;;;0.00;0.00;;;1.60;99.90;;;;;;5101571;28;20237;-68
2022/03/06 03:29:22;;;;;;;0.00;0.00;;;1.60;99.90;;;;;;5100840;28;20020;-72
2022/03/06 03:31:48;;;;;;;0.00;0.00;;;1.50;99.90;;;;;;5101826;28;20024;-68
2022/03/06 03:34:14;;;;;;;0.00;0.00;;;1.50;99.90;;;;;;5083986;28;20031;-68
2022/03/06 03:36:40;;;;;;;4.18;3.95;;;1.60;99.90;;;;;;5101793;28;20063;-67
2022/03/06 03:39:06;;;;;;;0.45;0.43;;;1.50;99.90;;;;;;5102207;28;20020;-69
2022/03/06 03:41:32;;;;;;;0.00;0.00;;;1.50;99.90;;;;;;5101582;28;20023;-67
2022/03/06 03:43:58;;;;;;;0.00;0.00;;;1.50;99.90;;;;;;5084459;28;20016;-67
2022/03/06 03:46:24;;;;;;;0.00;0.00;;;1.50;99.90;;;;;;5101601;28;20016;-78
2022/03/06 03:48:50;;;;;;;0.00;0.00;;;1.60;99.90;;;;;;5101780;28;20072;-69
2022/03/06 03:51:15;;;;;;;0.00;0.00;;;1.50;99.90;;;;;;5105516;28;20040;-67
2022/03/06 03:53:41;;;;;;;0.00;0.00;;;1.50;99.90;;;;;;5105011;28;20028;-67
2022/03/06 03:56:07;;;;;;;0.00;0.00;;;1.40;99.90;;;;;;5088102;28;20016;-67
2022/03/06 03:58:34;;;;;;;0.00;0.00;;;1.40;99.90;;;;;;5105420;28;20016;-68
2022/03/06 04:00:59;;;;;;;1.55;0.98;;;1.60;99.90;;;;;;5087520;28;20031;-67
2022/03/06 04:03:26;;;;;;;0.00;0.00;;;1.50;99.90;;;;;;5105606;28;20024;-78
2022/03/06 04:05:51;;;;;;;0.10;0.10;;;1.30;99.90;;;;;;5087051;28;20016;-67
2022/03/06 04:08:18;;;;;;;0.00;0.00;;;1.50;99.90;;;;;;5087780;28;20088;-67
2022/03/06 04:10:44;;;;;;;1.88;1.20;;;1.50;99.90;;;;;;5086882;28;20471;-68
2022/03/06 04:13:10;;;;;;;13.32;3.40;;;1.50;99.90;;;;;;5105861;28;20031;-68
2022/03/06 04:15:36;;;;;;;0.00;0.00;;;1.50;99.90;;;;;;5105134;28;20045;-67
2022/03/06 04:18:02;;;;;;;0.00;0.00;;;1.40;99.90;;;;;;5086997;28;20020;-67
2022/03/06 04:20:29;;;;;;;0.00;0.00;;;1.40;99.90;;;;;;5104851;28;20032;-75
2022/03/06 04:22:56;;;;;;;0.00;0.00;;;1.50;99.90;;;;;;5087039;28;20091;-67
2022/03/06 04:25:22;;;;;;;0.00;0.00;;;1.40;99.90;;;;;;5087410;28;20016;-68
2022/03/06 04:27:48;;;;;;;0.00;0.00;;;1.50;99.90;;;;;;5105060;28;20075;-68
2022/03/06 04:30:13;;;;;;;0.00;0.00;;;1.50;99.90;;;;;;5104895;28;20012;-68
2022/03/06 04:32:39;;;;;;;0.00;0.00;;;1.50;99.90;;;;;;5086612;28;20378;-68
2022/03/06 04:35:06;;;;;;;0.00;0.00;;;1.50;99.90;;;;;;5105449;28;20044;-66
2022/03/06 04:37:32;;;;;;;0.00;0.00;;;1.50;99.90;;;;;;5104617;28;20079;-67
2022/03/06 04:39:58;;;;;;;2.72;2.63;;;1.40;99.90;;;;;;5105429;28;20023;-67
2022/03/06 04:42:24;;;;;;;0.52;0.52;;;1.50;99.90;;;;;;5103180;28;20024;-67
2022/03/06 04:44:50;;;;;;;0.00;0.00;;;1.40;99.90;;;;;;5104358;28;20016;-67
2022/03/06 04:47:15;;;;;;;0.00;0.00;;;1.40;99.90;;;;;;5105183;28;20031;-70
2022/03/06 04:49:41;;;;;;;0.10;0.10;;;1.50;99.90;;;;;;5104126;28;20060;-67
2022/03/06 04:52:07;;;;;;;0.00;0.00;;;1.40;99.90;;;;;;5104706;28;20379;-67
2022/03/06 04:54:33;;;;;;;5.00;4.65;;;1.40;99.90;;;;;;5085919;28;20314;-66
2022/03/06 04:57:00;;;;;;;0.00;0.00;;;1.40;99.90;;;;;;5104577;28;20028;-68
2022/03/06 04:59:27;;;;;;;1.63;1.63;;;1.40;99.90;;;;;;5105071;28;20020;-68
2022/03/06 05:01:53;;;;;;;4.40;3.13;;;1.40;99.90;;;;;;5104106;28;20047;-68
2022/03/06 05:04:19;;;;;;;0.00;0.00;;;1.40;99.90;;;;;;5105160;28;20020;-68
2022/03/06 05:06:45;;;;;;;0.00;0.00;;;1.40;99.90;;;;;;5104202;28;20223;-68
2022/03/06 05:09:10;;;;;;;0.00;0.00;;;1.30;99.90;;;;;;5104666;28;20043;-68
2022/03/06 05:11:36;;;;;;;0.00;0.00;;;1.40;99.90;;;;;;5104163;28;20028;-68
2022/03/06 05:14:02;;;;;;;0.00;0.00;;;1.50;99.90;;;;;;5086572;28;20088;-67
2022/03/06 05:16:28;;;;;;;0.45;0.45;;;1.40;99.90;;;;;;5104200;28;20028;-75
2022/03/06 05:18:54;;;;;;;0.00;0.00;;;1.30;99.90;;;;;;5086234;28;20101;-67
2022/03/06 05:21:20;;;;;;;0.00;0.00;;;1.30;99.90;;;;;;5104779;28;20257;-67
2022/03/06 05:23:45;;;;;;;0.00;0.00;;;1.40;99.90;;;;;;5084770;28;20020;-68
2022/03/06 05:26:11;;;;;;;0.00;0.00;;;1.40;99.90;;;;;;5083295;28;20030;-68
2022/03/06 05:28:37;;;;;;;0.00;0.00;;;1.50;99.90;;;;;;5082400;28;20023;-67
2022/03/06 05:31:03;;;;;;;0.00;0.00;;;1.40;99.90;;;;;;5082585;28;20126;-78
2022/03/06 05:33:29;;;;;;;0.20;0.20;;;1.40;99.90;;;;;;5100231;28;20339;-72
2022/03/06 05:35:55;;;;;;;2.47;2.38;;;1.40;99.90;;;;;;5100282;28;20016;-73
2022/03/06 05:38:20;;;;;;;0.00;0.00;;;1.40;99.90;;;;;;5100240;28;20042;-67
2022/03/06 05:40:47;;;;;;;0.00;0.00;;;1.30;99.90;;;;;;5081886;28;20358;-68
2022/03/06 05:43:12;;;;;;;0.00;0.00;;;1.40;99.90;;;;;;5081854;28;20099;-82
2022/03/06 05:45:58;;;;;;;0.00;0.00;;;1.40;99.90;;;;;;5099542;28;20024;-68
2022/03/06 05:48:24;;;;;;;0.00;0.00;;;1.40;99.90;;;;;;5099761;28;20382;-68
2022/03/06 05:50:50;;;;;;;3.92;3.70;;;1.40;99.90;;;;;;5099487;28;20042;-67
2022/03/06 05:53:16;;;;;;;0.00;0.00;;;1.40;99.90;;;;;;5065278;28;20359;-71
2022/03/06 05:55:41;;;;;;;0.00;0.00;;;1.40;99.90;;;;;;5099559;28;20118;-68
2022/03/06 05:58:07;;;;;;;0.00;0.00;;;1.40;99.90;;;;;;5100183;28;20027;-70
2022/03/06 06:00:33;;;;;;;2.25;2.08;;;1.40;99.90;;;;;;5099737;28;20023;-78
2022/03/06 06:02:58;;;;;;;0.32;0.32;;;1.50;99.90;;;;;;5099964;28;20019;-68
2022/03/06 06:05:25;;;;;;;0.00;0.00;;;1.60;99.90;;;;;;5100049;28;20286;-68
2022/03/06 06:07:51;;;;;;;1.15;1.15;;;1.60;99.90;;;;;;5099202;28;20392;-68
2022/03/06 06:10:17;;;;;;;0.10;0.10;;;1.60;99.90;;;;;;5099695;28;20283;-69
2022/03/06 06:12:43;;;;;;;0.00;0.00;;;1.60;99.90;;;;;;5098377;28;20012;-74
2022/03/06 06:15:09;;;;;;;0.00;0.00;;;1.60;99.90;;;;;;5099794;28;20020;-68
2022/03/06 06:17:36;;;;;;;0.00;0.00;;;1.60;99.90;;;;;;5081233;28;20268;-77
2022/03/06 06:20:05;;;;;;;0.38;0.38;;;1.60;99.90;;;;;;5099922;28;20461;-71
2022/03/06 06:22:31;;;;;;;0.00;0.00;;;1.60;99.90;;;;;;5099296;28;20023;-76
2022/03/06 06:24:58;;;;;;;0.00;0.00;;;1.60;99.90;;;;;;5081205;28;20039;-68
2022/03/06 06:27:24;;;;;;;0.00;0.00;;;1.60;99.90;;;;;;5099356;28;20366;-68
2022/03/06 06:29:50;;;;;;;0.10;0.10;;;1.60;99.90;;;;;;5097407;28;20386;-77
2022/03/06 06:32:16;;;;;;;0.00;0.00;;;1.60;99.90;;;;;;5074992;28;20027;-68
2022/03/06 06:34:42;;;;;;;3.60;1.15;;;1.70;99.90;;;;;;5076473;28;20052;-76
2022/03/06 06:37:08;;;;;;;1.70;1.60;;;1.70;99.90;;;;;;5077548;28;20096;-68
2022/03/06 06:39:34;;;;;;;0.00;0.00;;;1.80;99.90;;;;;;5102024;28;20020;-74
2022/03/06 06:42:01;;;;;;;0.05;0.05;;;1.80;99.90;;;;;;5084914;28;20027;-68
2022/03/06 06:44:27;;;;;;;0.00;0.00;;;1.80;99.90;;;;;;5084894;28;20027;-68
2022/03/06 06:46:53;;;;;;;0.00;0.00;;;1.90;99.90;;;;;;5084604;28;20426;-69
2022/03/06 06:49:18;;;;;;;0.00;0.00;;;1.80;99.90;;;;;;5101785;28;20077;-67
2022/03/06 06:51:44;;;;;;;1.23;1.17;;;1.80;99.90;;;;;;5084590;28;20070;-67
2022/03/06 06:54:10;;;;;;;0.00;0.00;;;1.90;99.90;;;;;;5103265;28;20054;-67
2022/03/06 06:56:35;;;;;;;0.60;0.60;;;1.90;99.90;;;;;;5084627;28;20019;-67
2022/03/06 06:59:01;;;;;;;0.00;0.00;;;1.90;99.90;;;;;;5102919;28;20019;-67
2022/03/06 07:01:27;;;;;;;0.00;0.00;;;2.50;99.90;;;;;;5103171;28;20024;-67
2022/03/06 07:03:52;;;;;;;4.97;2.70;;;1.90;99.90;;;;;;5084742;28;20091;-67
2022/03/06 07:06:18;;;;;;;0.00;0.00;;;2.90;99.90;;;;;;5103239;28;20016;-68
2022/03/06 07:08:44;;;;;;;2.40;1.35;;;1.90;99.90;;;;;;5101520;28;20245;-67
2022/03/06 07:11:09;;;;;;;0.00;0.00;;;2.00;99.90;;;;;;5085312;28;20024;-67
2022/03/06 07:13:35;;;;;;;0.00;0.00;;;2.00;99.90;;;;;;5102796;28;20303;-68
2022/03/06 07:16:01;;;;;;;0.00;0.00;;;2.00;99.90;;;;;;5102970;28;20203;-67
2022/03/06 07:18:26;;;;;;;0.57;0.57;;;2.10;99.90;;;;;;5103230;28;20024;-68
2022/03/06 07:20:53;;;;;;;0.10;0.10;;;2.10;99.90;;;;;;5102862;28;20046;-68
2022/03/06 07:23:38;;;;;;;0.00;0.00;;;2.10;99.90;;;;;;5103910;28;20020;-67
2022/03/06 07:26:03;;;;;;;0.00;0.00;;;2.10;99.90;;;;;;5106828;28;20023;-68
2022/03/06 07:28:29;;;;;;;0.00;0.00;;;2.10;99.90;;;;;;5106887;28;20299;-67
2022/03/06 07:30:55;;;;;;;0.25;0.25;;;2.20;99.90;;;;;;5106528;28;20023;-67
2022/03/06 07:33:21;;;;;;;0.28;0.28;;;2.30;99.90;;;;;;5088997;28;20020;-69
2022/03/06 07:35:46;;;;;;;1.23;0.57;;;2.40;99.30;;;;;;5088627;28;20016;-68
2022/03/06 07:38:12;;;;;;;0.00;0.00;;;2.50;99.90;;;;;;5106429;28;20028;-68
2022/03/06 07:40:38;;;;;;;0.00;0.00;;;2.60;99.90;;;;;;5106108;28;20028;-67
2022/03/06 07:43:03;;;;;;;0.10;0.10;;;2.70;99.90;;;;;;5106676;28;20027;-67
2022/03/06 07:45:29;;;;;;;0.00;0.00;;;2.70;99.90;;;;;;5106954;28;20087;-68
2022/03/06 07:47:55;;;;;;;0.20;0.20;;;2.80;99.90;;;;;;5106170;28;20066;-70
2022/03/06 07:50:20;;;;;;;0.75;0.75;;;2.90;99.90;;;;;;5106760;28;20039;-68
2022/03/06 07:52:46;;;;;;;1.65;1.35;;;2.90;99.90;;;;;;5088183;28;20054;-69
2022/03/06 07:55:12;;;;;;;0.00;0.00;;;3.10;99.90;;;;;;5088548;28;20043;-69
2022/03/06 07:57:38;;;;;;;0.00;0.00;;;3.20;99.90;;;;;;5105770;28;20023;-68
2022/03/06 08:00:07;;;;;;;0.10;0.10;;;3.20;99.90;;;;;;5106310;28;20019;-69
2022/03/06 08:02:33;;;;;;;2.72;0.80;;;3.30;99.90;;;;;;5088311;28;20020;-69
2022/03/06 08:04:58;;;;;;;0.00;0.00;;;3.20;99.70;;;;;;5105827;28;20355;-68
2022/03/06 08:07:24;;;;;;;0.03;0.03;;;3.20;98.80;;;;;;5106530;28;20008;-70
2022/03/06 08:09:50;;;;;;;5.30;4.30;;;3.30;99.50;;;;;;5087568;28;20028;-69
2022/03/06 08:12:16;;;;;;;0.55;0.55;;;3.30;99.90;;;;;;5106002;28;20047;-68
2022/03/06 08:14:41;;;;;;;1.83;1.45;;;3.40;99.90;;;;;;5105695;28;20024;-68
2022/03/06 08:17:07;;;;;;;0.65;0.65;;;3.40;99.90;;;;;;5087851;28;20282;-67
2022/03/06 08:19:33;;;;;;;0.68;0.25;;;3.40;99.90;;;;;;5105781;28;20023;-68
2022/03/06 08:21:58;;;;;;;1.77;1.27;;;3.50;99.90;;;;;;5070803;28;20023;-68
2022/03/06 08:24:24;;;;;;;1.98;1.15;;;3.50;99.90;;;;;;5105765;28;20184;-68
2022/03/06 08:26:50;;;;;;;1.40;0.70;;;3.60;98.10;;;;;;5105579;28;20023;-68
2022/03/06 08:29:15;;;;;;;2.13;1.95;;;3.60;99.90;;;;;;5087757;28;20325;-68
2022/03/06 08:31:41;;;;;;;0.00;0.00;;;3.60;99.90;;;;;;5086958;28;20028;-69
2022/03/06 08:34:07;;;;;;;0.00;0.00;;;3.60;99.90;;;;;;5105685;28;20019;-68
2022/03/06 08:36:32;;;;;;;0.00;0.00;;;3.60;99.90;;;;;;5086921;28;20051;-68
2022/03/06 08:38:58;;;;;;;3.20;2.65;;;3.70;99.20;;;;;;5105293;28;20047;-68
2022/03/06 08:41:24;;;;;;;0.00;0.00;;;3.80;99.90;;;;;;5105322;28;20349;-68
2022/03/06 08:43:49;;;;;;;0.80;0.77;;;3.90;99.90;;;;;;5105125;28;20016;-68
2022/03/06 08:46:15;;;;;;;0.20;0.20;;;3.90;99.50;;;;;;5105644;28;20028;-68
2022/03/06 08:48:40;;;;;;;0.00;0.00;;;3.90;99.90;;;;;;5087080;28;20020;-69
2022/03/06 08:51:06;;;;;;;0.10;0.10;;;3.90;99.90;;;;;;5050149;28;20346;-68
2022/03/06 08:53:32;;;;;;;0.00;0.00;;;4.00;99.90;;;;;;5064835;28;20070;-68
2022/03/06 08:55:59;;;;;;;0.00;0.00;;;3.90;99.90;;;;;;5064797;28;20020;-68
2022/03/06 08:58:26;;;;;;;2.15;0.75;;;4.00;99.90;;;;;;5065201;28;20044;-68
2022/03/06 09:00:52;;;;;;;0.10;0.10;;;3.90;99.90;;;;;;5063277;28;20036;-68
2022/03/06 09:03:18;;;;;;;0.00;0.00;;;3.90;99.90;;;;;;5064362;28;20083;-68
2022/03/06 09:05:43;;;;;;;2.83;1.75;;;3.90;99.90;;;;;;5064032;28;20071;-68
2022/03/06 09:08:10;;;;;;;0.00;0.00;;;3.90;99.90;;;;;;5064740;28;20021;-68
2022/03/06 09:10:39;;;;;;;0.00;0.00;;;3.80;97.10;;;;;;5064833;28;20029;-69
2022/03/06 09:13:07;;;;;;;0.00;0.00;;;3.80;97.40;;;;;;5064538;28;20017;-68
2022/03/06 09:15:34;;;;;;;0.00;0.00;;;3.90;99.80;;;;;;5064604;28;20025;-68
2022/03/06 09:18:00;;;;;;;1.27;1.27;;;3.90;99.30;;;;;;5063079;28;20071;-68
2022/03/06 09:20:26;;;;;;;0.00;0.00;;;3.90;99.80;;;;;;5063052;28;20080;-73
2022/03/06 09:23:11;;;;;;;0.28;0.13;;;3.90;99.90;;;;;;5061698;28;20017;-67
2022/03/06 09:25:36;;;;;;;0.00;0.00;;;4.00;99.80;;;;;;5057935;28;20044;-77
2022/03/06 09:28:03;;;;;;;0.00;0.00;;;4.10;99.90;;;;;;5054893;28;20253;-72
2022/03/06 09:30:30;;;;;;;0.00;0.00;;;4.10;98.30;;;;;;5055418;28;20088;-78
2022/03/06 09:32:55;;;;;;;2.80;1.83;;;4.10;97.40;;;;;;5056043;28;20024;-69
2022/03/06 09:35:21;;;;;;;0.63;0.63;;;4.10;94.20;;;;;;5060638;28;20017;-74
2022/03/06 09:37:47;;;;;;;0.00;0.00;;;4.10;96.20;;;;;;5058850;28;20021;-75
2022/03/06 09:40:13;;;;;;;4.63;0.80;;;4.10;97.90;;;;;;5060654;28;20017;-75
2022/03/06 09:42:39;;;;;;;1.27;1.17;;;4.10;96.80;;;;;;5060721;28;20021;-73
2022/03/06 09:45:08;;;;;;;0.10;0.10;;;4.20;96.30;;;;;;5059571;28;20020;-75
2022/03/06 09:47:34;;;;;;;0.47;0.22;;;4.20;94.60;;;;;;5058941;28;20028;-76
2022/03/06 09:50:02;;;;;;;0.00;0.00;;;4.30;95.30;;;;;;5075953;28;20039;-73
2022/03/06 09:52:28;;;;;;;0.23;0.23;;;4.60;95.80;;;;;;5101019;28;20054;-77
2022/03/06 09:54:54;;;;;;;4.40;1.27;;;4.80;95.70;;;;;;5099909;28;20069;-77
2022/03/06 09:57:20;;;;;;;2.05;1.95;;;5.00;95.90;;;;;;5099286;28;20016;-79
2022/03/06 09:59:47;;;;;;;2.08;1.92;;;5.20;95.90;;;;;;5096077;28;20020;-76
2022/03/06 10:02:31;;;;;;;0.22;0.22;;;5.10;94.70;;;;;;5083003;28;20028;-75
2022/03/06 10:04:57;;;;;;;0.80;0.45;;;5.00;95.20;;;;;;5100286;28;20214;-73
2022/03/06 10:07:23;;;;;;;1.10;1.10;;;4.80;94.80;;;;;;5100336;28;20083;-73
2022/03/06 10:09:54;;;;;;;0.00;0.00;;;4.70;94.70;;;;;;5099919;28;20088;-74
2022/03/06 10:12:32;;;;;;;0.95;0.85;;;4.60;94.80;;;;;;5082449;28;20032;-72
2022/03/06 10:15:05;;;;;;;0.10;0.10;;;4.50;93.50;;;;;;5099642;28;20313;-74
2022/03/06 10:17:32;;;;;;;0.00;0.00;;;4.50;95.20;;;;;;5082102;28;20027;-74
2022/03/06 10:19:59;;;;;;;0.00;0.00;;;4.40;95.90;;;;;;5081303;28;20016;-74
2022/03/06 10:22:33;;;;;;;0.00;0.00;;;4.40;96.60;;;;;;5099309;28;20269;-75
2022/03/06 10:25:04;;;;;;;0.30;0.20;;;4.40;95.70;;;;;;5099775;28;20016;-73
2022/03/06 10:27:59;;;;;;;0.32;0.32;;;4.40;95.70;;;;;;5082101;28;20016;-75
2022/03/06 10:30:37;;;;;;;0.00;0.00;;;4.50;96.80;;;;;;5081570;28;20021;-74
2022/03/06 10:33:08;;;;;;;0.23;0.23;;;4.50;96.10;;;;;;5099416;28;20220;-73
2022/03/06 10:35:36;;;;;;;4.63;1.45;;;4.60;94.20;;;;;;5081619;28;20044;-74
2022/03/06 10:38:21;;;;;;;0.75;0.75;;;4.70;95.00;;;;;;5081436;28;20020;-76
2022/03/06 10:40:49;;;;;;;0.00;0.00;;;4.70;95.60;;;;;;5099425;28;20087;-80
2022/03/06 10:43:26;;;;;;;0.17;0.17;;;4.80;94.40;;;;;;5099584;28;20298;-75
2022/03/06 10:46:11;;;;;;;1.60;1.55;;;4.80;95.80;;;;;;5081454;28;20291;-76
2022/03/06 10:48:39;;;;;;;0.00;0.00;;;4.80;93.90;;;;;;5099880;28;20016;-76
2022/03/06 10:51:10;;;;;;;2.05;1.70;;;5.00;93.70;;;;;;5099141;28;20048;-75
2022/03/06 10:53:36;;;;;;;0.00;0.00;;;5.10;93.30;;;;;;5081493;28;20030;-73
2022/03/06 10:56:13;;;;;;;0.55;0.28;;;5.20;94.20;;;;;;5080959;28;20016;-75
2022/03/06 10:58:41;;;;;;;0.00;0.00;;;5.30;95.90;;;;;;5099228;28;20020;-72
2022/03/06 11:01:07;;;;;;;0.00;0.00;;;5.30;95.40;;;;;;5098893;28;20268;-72
2022/03/06 11:03:52;;;;;;;3.20;0.57;;;5.30;94.00;;;;;;5081337;28;20043;-74
2022/03/06 11:06:19;;;;;;;0.00;0.00;;;5.20;93.40;;;;;;5099459;28;20019;-72
2022/03/06 11:08:45;;;;;;;3.53;0.55;;;5.20;92.30;;;;;;5099081;28;20027;-72
2022/03/06 11:11:12;;;;;;;0.00;0.00;;;5.20;92.30;;;;;;5099360;28;20065;-75
2022/03/06 11:13:38;;;;;;;0.10;0.10;;;5.20;94.70;;;;;;5099632;28;20016;-72
2022/03/06 11:16:07;;;;;;;0.80;0.73;;;5.10;92.80;;;;;;5098984;28;20237;-76
2022/03/06 11:18:33;;;;;;;7.38;1.98;;;5.20;95.50;;;;;;5099359;28;20020;-72
2022/03/06 11:21:01;;;;;;;0.00;0.00;;;5.50;93.80;;;;;;5098146;28;20303;-72
2022/03/06 11:23:41;;;;;;;4.03;0.68;;;5.60;92.70;;;;;;5099747;28;20028;-71
2022/03/06 11:26:39;;;;;;;0.00;0.00;;;5.70;90.90;;;;;;5083779;28;20091;-70
2022/03/06 11:29:26;;;;;;;2.97;1.25;;;5.70;92.40;;;;;;5102131;28;20024;-70
2022/03/06 11:31:53;;;;;;;0.30;0.30;;;5.60;93.20;;;;;;5102291;28;20028;-71
2022/03/06 11:34:27;;;;;;;0.00;0.00;;;5.60;94.90;;;;;;5102566;28;20012;-71
2022/03/06 11:36:54;;;;;;;0.43;0.40;;;5.80;94.80;;;;;;5102029;28;20020;-71
2022/03/06 11:39:49;;;;;;;0.17;0.17;;;5.90;93.80;;;;;;5103051;28;20027;-71
2022/03/06 11:42:53;;;;;;;0.00;0.00;;;6.00;86.00;;;;;;5081493;28;20060;-71
2022/03/06 11:45:52;;;;;;;0.35;0.28;;;5.90;87.10;;;;;;5102703;28;20049;-71
2022/03/06 11:48:45;;;;;;;2.75;1.00;;;5.80;91.00;;;;;;5047448;28;20024;-71
2022/03/06 11:51:23;;;;;;;0.03;0.03;;;5.80;87.40;;;;;;5091326;28;20039;-72
2022/03/06 11:53:53;;;;;;;1.40;1.33;;;5.80;89.40;;;;;;5102212;28;20047;-71
2022/03/06 11:56:33;;;;;;;0.00;0.00;;;5.70;85.30;;;;;;5102392;28;20034;-72
2022/03/06 11:59:17;;;;;;;0.28;0.28;;;5.70;86.20;;;;;;5101605;28;20022;-71
2022/03/06 12:01:45;;;;;;;0.65;0.65;;;5.70;88.20;;;;;;5102522;28;20031;-71
2022/03/06 12:04:44;;;;;;;0.10;0.10;;;5.50;86.10;;;;;;5102352;28;20210;-73
2022/03/06 12:07:11;;;;;;;0.13;0.13;;;5.50;84.30;;;;;;5102017;28;20016;-70
2022/03/06 12:09:42;;;;;;;0.00;0.00;;;5.60;81.90;;;;;;5102495;28;20024;-71
2022/03/06 12:12:11;;;;;;;0.80;0.80;;;5.60;84.70;;;;;;5087531;28;20215;-72
2022/03/06 12:14:50;;;;;;;0.00;0.00;;;5.50;88.60;;;;;;5106101;28;20325;-72
2022/03/06 12:17:18;;;;;;;0.00;0.00;;;5.50;90.80;;;;;;5106487;28;20012;-71
2022/03/06 12:19:43;;;;;;;0.60;0.35;;;5.50;92.30;;;;;;5105833;28;20079;-71
2022/03/06 12:22:22;;;;;;;0.30;0.25;;;5.40;86.70;;;;;;5105784;28;20287;-71
2022/03/06 12:24:50;;;;;;;0.00;0.00;;;5.40;91.20;;;;;;5087567;28;20291;-86
2022/03/06 12:27:17;;;;;;;0.00;0.00;;;5.40;92.40;;;;;;5087601;28;20058;-70
2022/03/06 12:29:46;;;;;;;2.30;2.17;;;5.30;91.00;;;;;;5105838;28;20020;-72
2022/03/06 12:32:41;;;;;;;0.57;0.57;;;5.30;87.50;;;;;;5105100;28;20036;-72
2022/03/06 12:35:14;;;;;;;0.00;0.00;;;5.30;91.40;;;;;;5083439;28;20091;-71
2022/03/06 12:37:41;;;;;;;2.65;1.00;;;5.30;92.90;;;;;;5087560;28;20022;-72
2022/03/06 12:40:10;;;;;;;0.47;0.47;;;5.30;85.60;;;;;;5086877;28;20023;-72
2022/03/06 12:42:39;;;;;;;0.00;0.00;;;5.40;83.60;;;;;;5104394;28;20030;-72
2022/03/06 12:45:07;;;;;;;0.55;0.25;;;5.40;91.30;;;;;;5104573;28;20083;-72
2022/03/06 12:47:37;;;;;;;0.40;0.40;;;5.40;88.90;;;;;;5105119;28;20042;-73
2022/03/06 12:50:05;;;;;;;0.00;0.00;;;5.40;88.60;;;;;;5069765;28;20044;-72
2022/03/06 12:52:31;;;;;;;1.98;1.17;;;5.40;90.00;;;;;;5104956;28;20081;-73
2022/03/06 12:55:00;;;;;;;0.00;0.00;;;5.50;85.80;;;;;;5104720;28;20315;-72
2022/03/06 12:57:47;;;;;;;0.00;0.00;;;5.40;83.60;;;;;;5086147;28;20016;-72
2022/03/06 13:00:19;;;;;;;0.32;0.32;;;5.40;87.70;;;;;;5104598;28;20018;-73
2022/03/06 13:02:49;;;;;;;0.05;0.05;;;5.60;81.40;;;;;;5104762;28;20062;-73
2022/03/06 13:05:16;;;;;;;1.83;1.42;;;5.60;86.70;;;;;;5086664;28;20016;-73
2022/03/06 13:07:42;;;;;;;6.47;0.45;;;5.50;82.00;;;;;;5104474;28;20065;-73